Time;durP1;ratioP1;P1;durP2;ratioP2;P2;SDS_P1;SDS_P2;PMS_P1;PMS_P2;Temp;Humidity;BMP_temperature;BMP_pressure;BME280_temperature;BME280_humidity;BME280_pressure;Samples;Min_cycle;Max_cycle;Signal;HPM_P1;HPM_P2
2023/04/17 00:03:15;;;;;;;;;;;;;;;8.98;75.29;100913.63;216001;1255;61379;-73
2023/04/17 00:08:08;;;;;;;;;;;;;;;8.97;75.26;100914.45;216296;1251;72573;-73
2023/04/17 00:13:01;;;;;;;;;;;;;;;8.94;75.32;100914.36;216086;1251;176492;-73
2023/04/17 00:17:54;;;;;;;;;;;;;;;8.94;75.39;100915.39;216291;1255;61380;-73
2023/04/17 00:22:47;;;;;;;;;;;;;;;8.93;75.50;100919.36;216225;1251;61227;-73
2023/04/17 00:27:40;;;;;;;;;;;;;;;8.91;75.69;100918.96;215953;1252;61369;-73
2023/04/17 00:32:33;;;;;;;;;;;;;;;8.91;75.75;100924.32;215706;1251;61206;-73
2023/04/17 00:37:26;;;;;;;;;;;;;;;8.90;75.70;100924.09;215941;1251;61510;-73
2023/04/17 00:42:19;;;;;;;;;;;;;;;8.89;75.69;100927.70;216028;1251;61269;-73
2023/04/17 00:47:13;;;;;;;;;;;;;;;8.88;75.93;100936.16;215976;1251;61374;-73
2023/04/17 00:52:05;;;;;;;;;;;;;;;8.86;75.87;100939.90;216009;1251;74962;-73
2023/04/17 01:02:25;;;;;;;;;;;;;;;8.82;76.10;100944.30;205780;1256;950417;-74
2023/04/17 01:07:23;;;;;;;;;;;;;;;8.79;75.98;100939.21;215209;1259;65814;-73
2023/04/17 01:12:19;;;;;;;;;;;;;;;8.76;76.04;100939.83;215017;1259;61340;-73
2023/04/17 01:17:14;;;;;;;;;;;;;;;8.72;75.96;100937.27;215061;1260;74333;-73
2023/04/17 01:22:07;;;;;;;;;;;;;;;8.60;76.03;100939.04;214990;1259;72707;-73
2023/04/17 01:27:00;;;;;;;;;;;;;;;8.49;75.99;100940.27;215086;1260;61227;-73
2023/04/17 01:31:53;;;;;;;;;;;;;;;8.41;76.31;100935.32;214745;1259;61295;-73
2023/04/17 01:36:46;;;;;;;;;;;;;;;8.29;76.18;100936.70;214748;1260;61239;-73
2023/04/17 01:41:39;;;;;;;;;;;;;;;8.16;76.38;100943.58;215024;1258;61295;-73
2023/04/17 01:46:32;;;;;;;;;;;;;;;8.03;76.09;100942.66;214922;1258;61612;-73
2023/04/17 01:51:24;;;;;;;;;;;;;;;7.91;76.31;100941.95;214713;1260;61371;-73
2023/04/17 01:56:18;;;;;;;;;;;;;;;7.79;76.17;100938.95;214813;1259;61330;-73
2023/04/17 02:01:10;;;;;;;;;;;;;;;7.65;76.24;100941.78;214741;1260;61441;-73
2023/04/17 02:06:03;;;;;;;;;;;;;;;7.54;76.42;100941.44;214861;1260;61402;-74
2023/04/17 02:10:56;;;;;;;;;;;;;;;7.45;76.69;100944.09;214740;1259;61293;-74
2023/04/17 02:15:49;;;;;;;;;;;;;;;7.39;76.79;100949.58;214894;1260;61274;-73
2023/04/17 02:20:42;;;;;;;;;;;;;;;7.33;77.11;100949.86;214900;1259;61258;-73
2023/04/17 02:25:35;;;;;;;;;;;;;;;7.25;77.14;100948.05;215068;1260;61256;-74
2023/04/17 02:30:28;;;;;;;;;;;;;;;7.17;76.86;100945.89;215118;1261;61290;-74
2023/04/17 02:35:22;;;;;;;;;;;;;;;7.07;76.87;100943.65;215050;1260;61308;-74
2023/04/17 02:40:16;;;;;;;;;;;;;;;6.98;76.64;100947.98;215201;1260;61272;-73
2023/04/17 02:45:08;;;;;;;;;;;;;;;6.87;76.36;100947.27;215077;1259;65900;-74
2023/04/17 02:50:01;;;;;;;;;;;;;;;6.77;76.51;100954.33;214993;1258;61228;-74
2023/04/17 02:54:58;;;;;;;;;;;;;;;6.70;76.81;100957.68;215099;1260;75663;-74
2023/04/17 02:59:52;;;;;;;;;;;;;;;6.60;76.63;100962.66;215033;1260;70613;-75
2023/04/17 03:04:47;;;;;;;;;;;;;;;6.52;76.73;100968.55;214993;1259;61956;-73
2023/04/17 03:09:41;;;;;;;;;;;;;;;6.45;76.81;100968.98;215011;1260;68354;-73
2023/04/17 03:14:34;;;;;;;;;;;;;;;6.35;76.22;100969.13;215060;1260;61234;-74
2023/04/17 03:19:27;;;;;;;;;;;;;;;6.26;76.27;100971.86;214932;1260;61401;-73
2023/04/17 03:24:20;;;;;;;;;;;;;;;6.17;76.01;100967.05;214990;1260;61336;-73
2023/04/17 03:29:13;;;;;;;;;;;;;;;6.07;75.86;100968.91;215140;1260;61249;-73
2023/04/17 03:34:06;;;;;;;;;;;;;;;6.01;75.94;100975.05;215068;1260;61289;-73
2023/04/17 03:38:59;;;;;;;;;;;;;;;5.96;75.77;100972.10;215083;1260;61852;-74
2023/04/17 03:43:52;;;;;;;;;;;;;;;5.97;76.57;100982.61;215022;1262;61257;-73
2023/04/17 03:48:44;;;;;;;;;;;;;;;5.98;76.57;100983.16;215070;1260;61275;-73
2023/04/17 03:53:37;;;;;;;;;;;;;;;5.95;76.43;100984.41;215037;1260;61374;-74
2023/04/17 03:58:33;;;;;;;;;;;;;;;5.97;76.67;100994.65;215105;1259;66269;-73
2023/04/17 04:03:30;;;;;;;;;;;;;;;6.02;76.83;100995.39;215024;1260;61352;-74
2023/04/17 04:08:24;;;;;;;;;;;;;;;6.07;76.48;101000.41;215164;1259;74630;-73
2023/04/17 04:13:19;;;;;;;;;;;;;;;6.17;76.24;101006.30;214932;1261;72221;-74
2023/04/17 04:18:16;;;;;;;;;;;;;;;6.37;76.36;101011.89;214968;1260;61260;-73
2023/04/17 04:23:09;;;;;;;;;;;;;;;6.63;76.55;101017.70;215038;1259;61257;-73
2023/04/17 04:28:04;;;;;;;;;;;;;;;6.68;76.65;101025.30;215006;1262;61342;-74
2023/04/17 04:32:59;;;;;;;;;;;;;;;6.80;77.54;101025.58;214898;1260;74971;-74
2023/04/17 04:37:53;;;;;;;;;;;;;;;7.01;78.18;101027.89;215116;1261;70687;-74
2023/04/17 04:42:48;;;;;;;;;;;;;;;7.21;78.11;101029.66;214954;1260;61375;-73
2023/04/17 04:47:48;;;;;;;;;;;;;;;7.38;78.23;101030.25;215083;1260;65064;-74
2023/04/17 04:52:41;;;;;;;;;;;;;;;7.51;78.30;101026.39;214710;1259;61327;-74
2023/04/17 04:57:45;;;;;;;;;;;;;;;7.67;78.33;101034.36;214769;1260;73620;-74
2023/04/17 05:02:39;;;;;;;;;;;;;;;7.91;78.08;101038.60;214617;1262;72938;-74
2023/04/17 05:07:33;;;;;;;;;;;;;;;8.16;77.80;101038.52;214988;1260;61253;-73
2023/04/17 05:12:26;;;;;;;;;;;;;;;8.46;77.48;101038.46;215160;1259;65924;-74
2023/04/17 05:17:19;;;;;;;;;;;;;;;8.72;77.31;101045.13;214913;1260;61371;-74
2023/04/17 05:22:12;;;;;;;;;;;;;;;8.88;76.80;101039.19;215184;1260;61269;-74
2023/04/17 05:27:19;;;;;;;;;;;;;;;9.08;76.56;101039.92;214935;1259;72504;-72
2023/04/17 05:32:12;;;;;;;;;;;;;;;9.46;75.92;101038.89;215198;1259;61192;-73
2023/04/17 05:37:13;;;;;;;;;;;;;;;9.86;75.61;101051.17;215127;1260;66962;-73
2023/04/17 05:42:06;;;;;;;;;;;;;;;10.17;75.04;101059.74;215082;1260;61355;-73
2023/04/17 05:46:59;;;;;;;;;;;;;;;10.30;74.38;101060.41;215166;1260;61388;-73
2023/04/17 05:51:53;;;;;;;;;;;;;;;10.44;74.08;101063.52;215182;1260;61240;-73
2023/04/17 05:56:46;;;;;;;;;;;;;;;10.46;74.08;101068.08;215013;1260;61218;-74
2023/04/17 06:01:39;;;;;;;;;;;;;;;10.58;74.11;101062.79;215089;1259;65769;-73
2023/04/17 06:06:32;;;;;;;;;;;;;;;10.60;73.78;101065.95;214897;1260;61266;-73
2023/04/17 06:11:26;;;;;;;;;;;;;;;10.57;73.76;101062.09;214996;1260;61346;-73
2023/04/17 06:16:19;;;;;;;;;;;;;;;10.61;73.78;101066.52;214998;1260;72547;-73
2023/04/17 06:21:12;;;;;;;;;;;;;;;10.57;73.52;101073.35;215121;1260;61386;-73
2023/04/17 06:26:05;;;;;;;;;;;;;;;10.66;73.71;101074.23;215110;1258;61266;-73
2023/04/17 06:30:59;;;;;;;;;;;;;;;10.81;73.38;101077.33;215200;1260;61269;-73
2023/04/17 06:35:52;;;;;;;;;;;;;;;10.84;73.31;101075.84;215093;1259;75368;-73
2023/04/17 06:40:51;;;;;;;;;;;;;;;10.96;72.93;101072.45;214916;1258;72621;-73
2023/04/17 06:45:44;;;;;;;;;;;;;;;11.23;72.45;101067.63;214883;1260;61724;-73
2023/04/17 06:50:37;;;;;;;;;;;;;;;11.62;71.79;101071.33;214817;1260;61301;-73
2023/04/17 06:55:31;;;;;;;;;;;;;;;11.49;71.84;101074.55;214998;1260;61228;-73
2023/04/17 07:00:23;;;;;;;;;;;;;;;11.84;71.60;101081.45;215115;1260;61201;-73
2023/04/17 07:05:16;;;;;;;;;;;;;;;12.08;71.33;101080.31;215109;1261;61908;-74
2023/04/17 07:10:09;;;;;;;;;;;;;;;12.13;71.27;101087.88;215183;1262;61374;-73
2023/04/17 07:15:02;;;;;;;;;;;;;;;12.03;71.15;101092.05;215111;1259;61336;-73
2023/04/17 07:19:55;;;;;;;;;;;;;;;11.96;71.06;101096.09;215138;1261;61236;-75
2023/04/17 07:24:47;;;;;;;;;;;;;;;11.90;71.02;101105.19;215196;1262;61230;-75
2023/04/17 07:29:40;;;;;;;;;;;;;;;11.75;71.42;101108.71;215197;1260;61230;-75
2023/04/17 07:34:33;;;;;;;;;;;;;;;11.61;71.60;101112.96;215143;1260;61377;-74
2023/04/17 07:39:30;;;;;;;;;;;;;;;11.38;71.89;101124.35;215149;1260;61463;-74
2023/04/17 07:44:23;;;;;;;;;;;;;;;11.21;72.17;101127.45;215202;1260;61368;-74
2023/04/17 07:49:15;;;;;;;;;;;;;;;11.32;72.29;101125.09;215186;1261;61361;-75
2023/04/17 07:54:09;;;;;;;;;;;;;;;11.47;72.41;101126.60;215216;1260;71385;-75
2023/04/17 07:59:02;;;;;;;;;;;;;;;11.70;71.90;101127.92;215183;1262;61324;-75
2023/04/17 08:03:55;;;;;;;;;;;;;;;11.95;71.61;101126.29;215191;1262;66804;-75
2023/04/17 08:08:48;;;;;;;;;;;;;;;12.13;71.11;101130.45;215161;1261;61260;-75
2023/04/17 08:13:41;;;;;;;;;;;;;;;12.45;70.80;101132.53;215228;1260;61279;-75
2023/04/17 08:18:36;;;;;;;;;;;;;;;12.93;70.28;101124.54;215299;1260;61372;-75
2023/04/17 08:23:29;;;;;;;;;;;;;;;13.75;68.84;101121.03;215282;1262;61335;-75
2023/04/17 08:28:23;;;;;;;;;;;;;;;13.97;68.33;101123.71;215257;1261;66354;-74
2023/04/17 08:33:17;;;;;;;;;;;;;;;14.73;67.22;101125.90;215279;1261;61236;-74
2023/04/17 08:38:12;;;;;;;;;;;;;;;15.06;66.97;101129.58;215197;1260;73475;-75
2023/04/17 08:43:06;;;;;;;;;;;;;;;15.63;66.02;101135.92;215281;1260;72570;-74
2023/04/17 08:47:59;;;;;;;;;;;;;;;15.70;65.70;101135.60;215252;1260;61265;-74
2023/04/17 08:52:51;;;;;;;;;;;;;;;14.98;66.00;101145.23;215286;1261;65968;-75
2023/04/17 08:58:04;;;;;;;;;;;;;;;14.32;66.88;101147.73;215150;1261;61806;-75
2023/04/17 09:02:58;;;;;;;;;;;;;;;13.92;67.48;101155.03;215119;1262;73399;-74
2023/04/17 09:08:14;;;;;;;;;;;;;;;13.66;68.01;101159.45;215092;1261;72999;-75
2023/04/17 09:13:07;;;;;;;;;;;;;;;13.54;68.30;101158.63;215145;1262;61221;-75
2023/04/17 09:18:01;;;;;;;;;;;;;;;13.61;68.30;101158.16;215129;1261;66804;-75
2023/04/17 09:22:59;;;;;;;;;;;;;;;13.93;68.13;101151.55;215116;1260;61257;-74
2023/04/17 09:27:51;;;;;;;;;;;;;;;14.35;67.86;101151.39;215110;1262;73096;-74
2023/04/17 09:32:44;;;;;;;;;;;;;;;14.67;67.04;101149.94;215125;1262;61477;-74
2023/04/17 09:37:48;;;;;;;;;;;;;;;14.57;67.23;101155.27;215178;1260;61364;-74
2023/04/17 09:42:54;;;;;;;;;;;;;;;14.44;67.40;101157.41;215121;1262;67392;-74
2023/04/17 09:47:47;;;;;;;;;;;;;;;14.56;66.80;101152.63;215120;1260;61349;-74
2023/04/17 09:52:40;;;;;;;;;;;;;;;14.69;66.73;101151.35;215126;1263;73477;-74
2023/04/17 09:57:33;;;;;;;;;;;;;;;14.66;66.89;101150.98;215080;1260;61381;-75
2023/04/17 10:02:26;;;;;;;;;;;;;;;14.57;66.69;101149.33;215058;1258;61223;-73
2023/04/17 10:07:19;;;;;;;;;;;;;;;14.70;66.80;101149.61;215166;1262;65630;-74
2023/04/17 10:12:17;;;;;;;;;;;;;;;14.52;66.56;101155.21;215216;1260;61258;-74
2023/04/17 10:17:31;;;;;;;;;;;;;;;14.42;66.25;101152.68;215106;1261;74548;-75
2023/04/17 10:22:24;;;;;;;;;;;;;;;14.57;66.16;101152.64;215126;1260;72661;-74
2023/04/17 10:27:25;;;;;;;;;;;;;;;15.52;65.05;101146.47;215022;1262;61589;-74
2023/04/17 10:32:18;;;;;;;;;;;;;;;17.36;62.54;101138.64;215072;1260;66983;-74
2023/04/17 10:37:14;;;;;;;;;;;;;;;17.80;61.56;101132.81;215215;1262;61264;-74
2023/04/17 10:42:07;;;;;;;;;;;;;;;17.93;60.86;101135.93;215306;1260;74396;-74
2023/04/17 10:47:05;;;;;;;;;;;;;;;17.54;61.13;101133.84;215305;1260;61288;-74
2023/04/17 10:51:58;;;;;;;;;;;;;;;17.17;60.86;101137.33;215101;1260;61356;-74
2023/04/17 10:56:54;;;;;;;;;;;;;;;17.01;61.02;101140.72;215111;1261;61276;-74
2023/04/17 11:01:47;;;;;;;;;;;;;;;16.81;61.25;101136.89;215124;1260;61231;-74
2023/04/17 11:06:40;;;;;;;;;;;;;;;16.25;61.98;101135.87;215116;1260;61465;-74
2023/04/17 11:11:38;;;;;;;;;;;;;;;15.59;62.07;101138.71;215050;1261;73330;-74
2023/04/17 11:16:40;;;;;;;;;;;;;;;14.96;62.71;101145.59;215185;1260;61263;-73
2023/04/17 11:21:33;;;;;;;;;;;;;;;14.57;63.19;101149.86;215064;1260;67496;-74
2023/04/17 11:26:26;;;;;;;;;;;;;;;14.27;63.53;101150.46;215102;1260;61253;-74
2023/04/17 11:31:19;;;;;;;;;;;;;;;14.10;63.97;101149.10;215186;1260;61301;-74
2023/04/17 11:36:13;;;;;;;;;;;;;;;14.02;64.07;101156.16;215151;1261;72783;-74
2023/04/17 11:41:08;;;;;;;;;;;;;;;14.02;64.20;101154.42;215120;1262;61277;-75
2023/04/17 11:46:01;;;;;;;;;;;;;;;14.01;63.98;101157.36;215108;1260;65935;-74
2023/04/17 11:50:59;;;;;;;;;;;;;;;14.04;63.46;101159.33;215081;1260;61295;-74
2023/04/17 11:56:11;;;;;;;;;;;;;;;14.25;63.01;101161.08;215159;1260;73401;-73
2023/04/17 12:01:05;;;;;;;;;;;;;;;14.65;62.35;101156.20;215188;1259;72592;-75
2023/04/17 12:05:59;;;;;;;;;;;;;;;15.27;61.69;101148.19;215419;1260;61461;-75
2023/04/17 12:10:52;;;;;;;;;;;;;;;15.73;60.78;101146.45;215348;1259;114972;-75
2023/04/17 12:15:45;;;;;;;;;;;;;;;15.86;59.90;101146.15;215153;1260;61247;-74
2023/04/17 12:20:38;;;;;;;;;;;;;;;16.13;59.55;101143.73;214965;1260;61723;-75
2023/04/17 12:25:31;;;;;;;;;;;;;;;16.45;59.29;101147.07;215120;1260;61321;-75
2023/04/17 12:30:28;;;;;;;;;;;;;;;16.52;58.68;101153.20;215170;1260;61252;-74
2023/04/17 12:35:21;;;;;;;;;;;;;;;16.39;58.25;101159.14;215238;1260;65768;-76
2023/04/17 12:40:16;;;;;;;;;;;;;;;16.49;57.56;101158.27;215141;1260;61259;-76
2023/04/17 12:45:10;;;;;;;;;;;;;;;16.39;57.50;101165.97;215150;1260;75412;-74
2023/04/17 12:50:02;;;;;;;;;;;;;;;16.27;57.14;101168.05;215231;1260;71134;-74
2023/04/17 12:54:58;;;;;;;;;;;;;;;16.11;56.90;101165.59;215284;1260;61317;-73
2023/04/17 12:59:51;;;;;;;;;;;;;;;16.04;57.03;101164.02;215216;1259;67707;-74
2023/04/17 13:04:44;;;;;;;;;;;;;;;16.12;56.42;101168.56;215295;1259;61493;-74
2023/04/17 13:09:37;;;;;;;;;;;;;;;16.18;55.91;101167.69;215258;1260;61233;-75
2023/04/17 13:14:30;;;;;;;;;;;;;;;16.29;55.91;101171.20;215286;1259;61426;-74
2023/04/17 13:19:23;;;;;;;;;;;;;;;16.18;55.44;101170.49;215119;1259;61358;-74
2023/04/17 13:24:15;;;;;;;;;;;;;;;15.98;55.80;101171.34;215239;1259;61456;-74
2023/04/17 13:29:08;;;;;;;;;;;;;;;15.83;56.14;101176.90;215298;1262;61336;-75
2023/04/17 13:34:01;;;;;;;;;;;;;;;15.70;56.45;101175.61;215355;1260;61911;-74
2023/04/17 13:38:54;;;;;;;;;;;;;;;15.80;56.61;101179.52;215270;1260;61387;-74
2023/04/17 13:43:47;;;;;;;;;;;;;;;15.83;56.29;101174.80;215353;1260;61307;-74
2023/04/17 13:48:40;;;;;;;;;;;;;;;15.69;56.33;101174.39;215219;1260;61237;-74
2023/04/17 13:53:32;;;;;;;;;;;;;;;15.51;56.58;101177.45;215294;1260;61361;-74
2023/04/17 13:58:25;;;;;;;;;;;;;;;15.38;56.82;101179.86;215443;1259;61348;-74
2023/04/17 14:03:18;;;;;;;;;;;;;;;15.29;57.04;101182.44;215292;1260;61279;-74
2023/04/17 14:08:12;;;;;;;;;;;;;;;15.31;56.90;101178.41;215375;1260;61288;-74
2023/04/17 14:13:05;;;;;;;;;;;;;;;15.31;56.87;101184.20;215312;1260;61349;-73
2023/04/17 14:17:58;;;;;;;;;;;;;;;15.26;56.67;101182.41;215297;1260;61274;-74
2023/04/17 14:22:53;;;;;;;;;;;;;;;15.32;56.73;101181.58;215315;1260;74542;-74
2023/04/17 14:27:45;;;;;;;;;;;;;;;15.42;56.88;101174.46;215294;1259;73250;-74
2023/04/17 14:32:38;;;;;;;;;;;;;;;15.39;56.78;101173.75;215297;1260;61441;-74
2023/04/17 14:37:31;;;;;;;;;;;;;;;15.35;56.94;101178.79;215291;1260;61226;-74
2023/04/17 14:42:24;;;;;;;;;;;;;;;15.39;56.84;101180.55;215266;1258;61267;-74
2023/04/17 14:47:18;;;;;;;;;;;;;;;15.32;56.54;101180.35;215301;1259;62012;-73
2023/04/17 14:52:11;;;;;;;;;;;;;;;14.99;56.40;101170.05;214974;1262;72211;-74
2023/04/17 14:57:04;;;;;;;;;;;;;;;14.75;56.72;101171.80;215175;1260;61259;-74
2023/04/17 15:01:57;;;;;;;;;;;;;;;14.69;56.93;101171.93;215041;1261;67062;-75
2023/04/17 15:06:50;;;;;;;;;;;;;;;14.61;56.43;101173.09;215203;1259;61300;-74
2023/04/17 15:11:42;;;;;;;;;;;;;;;14.45;56.55;101176.61;215153;1258;61338;-75
2023/04/17 15:16:35;;;;;;;;;;;;;;;14.34;57.07;101178.42;215215;1259;61397;-77
2023/04/17 15:21:28;;;;;;;;;;;;;;;14.35;57.32;101182.80;215158;1260;61378;-75
2023/04/17 15:26:22;;;;;;;;;;;;;;;14.30;57.43;101183.81;214961;1261;61272;-76
2023/04/17 15:31:15;;;;;;;;;;;;;;;14.35;57.61;101184.18;215037;1259;61211;-75
2023/04/17 15:36:07;;;;;;;;;;;;;;;14.42;57.60;101182.15;215157;1260;61479;-75
2023/04/17 15:41:02;;;;;;;;;;;;;;;14.50;57.53;101177.88;215117;1260;64795;-74
2023/04/17 15:45:55;;;;;;;;;;;;;;;14.54;57.33;101180.34;214919;1260;61339;-75
2023/04/17 15:50:48;;;;;;;;;;;;;;;14.53;57.38;101177.02;215197;1259;61284;-75
2023/04/17 15:55:41;;;;;;;;;;;;;;;14.52;57.26;101177.36;215228;1259;61298;-75
2023/04/17 16:00:34;;;;;;;;;;;;;;;14.43;57.30;101177.46;215171;1260;61574;-75
2023/04/17 16:05:26;;;;;;;;;;;;;;;14.25;57.16;101181.31;215090;1262;61233;-75
2023/04/17 16:10:19;;;;;;;;;;;;;;;14.03;57.54;101184.93;215235;1260;61374;-74
2023/04/17 16:15:13;;;;;;;;;;;;;;;13.86;57.72;101184.41;215143;1260;61360;-74
2023/04/17 16:20:06;;;;;;;;;;;;;;;13.73;57.89;101193.50;215424;1258;61280;-74
2023/04/17 16:25:00;;;;;;;;;;;;;;;13.58;58.00;101194.72;215174;1260;74301;-75
2023/04/17 16:29:53;;;;;;;;;;;;;;;13.46;58.14;101204.33;215182;1262;73583;-74
2023/04/17 16:34:46;;;;;;;;;;;;;;;13.26;58.17;101208.90;215194;1260;61365;-77
2023/04/17 16:39:39;;;;;;;;;;;;;;;13.05;58.43;101214.49;215164;1258;65576;-75
2023/04/17 16:44:32;;;;;;;;;;;;;;;12.87;58.81;101217.55;215244;1258;61276;-75
2023/04/17 16:49:25;;;;;;;;;;;;;;;12.73;59.22;101226.02;215224;1258;61389;-75
2023/04/17 16:54:20;;;;;;;;;;;;;;;12.60;59.81;101226.15;215183;1260;61266;-75
2023/04/17 16:59:13;;;;;;;;;;;;;;;12.46;60.20;101229.74;215146;1260;61371;-75
2023/04/17 17:04:07;;;;;;;;;;;;;;;12.34;60.66;101237.52;215181;1259;68012;-75
2023/04/17 17:09:01;;;;;;;;;;;;;;;12.22;60.99;101238.54;215114;1260;61356;-75
2023/04/17 17:13:54;;;;;;;;;;;;;;;12.12;61.17;101247.73;215012;1260;73780;-75
2023/04/17 17:18:47;;;;;;;;;;;;;;;12.02;61.54;101250.48;215105;1258;61392;-75
2023/04/17 17:23:40;;;;;;;;;;;;;;;11.95;61.88;101257.13;214976;1258;61315;-75
2023/04/17 17:28:34;;;;;;;;;;;;;;;11.88;62.04;101258.52;214647;1260;66640;-75
2023/04/17 17:33:26;;;;;;;;;;;;;;;11.79;62.14;101264.60;216260;1258;61611;-75
2023/04/17 17:38:19;;;;;;;;;;;;;;;11.71;62.41;101268.58;214952;1259;61433;-75
2023/04/17 17:43:12;;;;;;;;;;;;;;;11.64;62.63;101276.41;215118;1259;61253;-75
2023/04/17 17:48:05;;;;;;;;;;;;;;;11.56;62.83;101279.71;215088;1259;61270;-75
2023/04/17 17:52:58;;;;;;;;;;;;;;;11.48;62.96;101276.77;214826;1260;61289;-75
2023/04/17 17:57:51;;;;;;;;;;;;;;;11.40;63.06;101280.09;215098;1260;61292;-75
2023/04/17 18:02:44;;;;;;;;;;;;;;;11.36;63.26;101283.96;215104;1260;61424;-75
2023/04/17 18:07:39;;;;;;;;;;;;;;;11.33;63.42;101283.89;215088;1260;61265;-76
2023/04/17 18:12:32;;;;;;;;;;;;;;;11.30;63.62;101285.04;215043;1259;61282;-75
2023/04/17 18:17:25;;;;;;;;;;;;;;;11.25;63.71;101288.58;214951;1260;66852;-76
2023/04/17 18:22:19;;;;;;;;;;;;;;;11.22;63.87;101294.23;215079;1258;61270;-75
2023/04/17 18:27:12;;;;;;;;;;;;;;;11.17;63.98;101295.15;215045;1260;74510;-75
2023/04/17 18:32:05;;;;;;;;;;;;;;;11.11;64.17;101298.66;215102;1258;72027;-74
2023/04/17 18:36:59;;;;;;;;;;;;;;;11.07;64.37;101299.42;214930;1260;61322;-75
2023/04/17 18:41:52;;;;;;;;;;;;;;;11.02;64.36;101300.70;215080;1260;67772;-75
2023/04/17 18:46:44;;;;;;;;;;;;;;;10.96;64.66;101298.64;215099;1258;61252;-74
2023/04/17 18:51:38;;;;;;;;;;;;;;;10.91;64.72;101295.91;215139;1259;61343;-75
2023/04/17 18:56:30;;;;;;;;;;;;;;;10.88;64.98;101302.77;215099;1260;61784;-74
2023/04/17 19:01:24;;;;;;;;;;;;;;;10.83;65.08;101302.83;215086;1260;61292;-76
2023/04/17 19:06:16;;;;;;;;;;;;;;;10.79;65.27;101308.45;215037;1259;61360;-76
2023/04/17 19:11:09;;;;;;;;;;;;;;;10.78;65.31;101307.72;215006;1260;61244;-76
2023/04/17 19:16:02;;;;;;;;;;;;;;;10.76;65.48;101307.33;215048;1260;61323;-76
2023/04/17 19:20:55;;;;;;;;;;;;;;;10.73;65.43;101312.29;215057;1259;61403;-76
2023/04/17 19:25:53;;;;;;;;;;;;;;;10.70;65.67;101312.20;215042;1260;61257;-75
2023/04/17 19:30:46;;;;;;;;;;;;;;;10.65;65.82;101311.40;215157;1259;67039;-75
2023/04/17 19:35:40;;;;;;;;;;;;;;;10.62;66.02;101307.83;215171;1258;61269;-75
2023/04/17 19:40:33;;;;;;;;;;;;;;;10.58;66.10;101303.05;215213;1259;75480;-75
2023/04/17 19:45:25;;;;;;;;;;;;;;;10.56;66.37;101310.45;215192;1259;71432;-74
2023/04/17 19:50:18;;;;;;;;;;;;;;;10.51;66.58;101314.84;215286;1262;65997;-75
2023/04/17 19:55:11;;;;;;;;;;;;;;;10.50;66.75;101318.26;214876;1259;61938;-75
2023/04/17 20:00:04;;;;;;;;;;;;;;;10.45;66.96;101318.12;214946;1260;61231;-75
2023/04/17 20:05:04;;;;;;;;;;;;;;;10.41;67.26;101317.82;215120;1260;73460;-75
2023/04/17 20:09:56;;;;;;;;;;;;;;;10.36;67.57;101324.80;215076;1259;61297;-75
2023/04/17 20:14:51;;;;;;;;;;;;;;;10.31;67.61;101328.31;215092;1260;61287;-75
2023/04/17 20:19:44;;;;;;;;;;;;;;;10.28;67.90;101325.11;215123;1260;67071;-74
2023/04/17 20:24:37;;;;;;;;;;;;;;;10.25;67.99;101324.64;214980;1260;61385;-75
2023/04/17 20:29:30;;;;;;;;;;;;;;;10.20;68.26;101324.70;215040;1260;61279;-75
2023/04/17 20:34:24;;;;;;;;;;;;;;;10.16;68.27;101328.05;214927;1260;73389;-75
2023/04/17 20:39:17;;;;;;;;;;;;;;;10.13;68.56;101332.96;215102;1260;61877;-75
2023/04/17 20:44:10;;;;;;;;;;;;;;;10.10;68.77;101334.47;215045;1260;61320;-75
2023/04/17 20:49:03;;;;;;;;;;;;;;;10.07;68.91;101335.24;215154;1260;61288;-74
2023/04/17 20:53:56;;;;;;;;;;;;;;;10.05;68.91;101335.35;215176;1260;61257;-75
2023/04/17 20:58:49;;;;;;;;;;;;;;;10.02;69.11;101338.54;215100;1260;61384;-76
2023/04/17 21:03:42;;;;;;;;;;;;;;;9.99;69.13;101337.59;215134;1261;61382;-75
2023/04/17 21:08:35;;;;;;;;;;;;;;;9.92;69.06;101339.13;215158;1260;65644;-74
2023/04/17 21:13:29;;;;;;;;;;;;;;;9.90;69.32;101342.37;215178;1260;61320;-75
2023/04/17 21:18:22;;;;;;;;;;;;;;;9.86;69.40;101346.73;215112;1262;74635;-75
2023/04/17 21:23:15;;;;;;;;;;;;;;;9.82;69.30;101350.95;215085;1260;72477;-74
2023/04/17 21:28:08;;;;;;;;;;;;;;;9.80;69.48;101349.50;215310;1260;61242;-75
2023/04/17 21:33:01;;;;;;;;;;;;;;;9.80;69.76;101351.74;215142;1260;61299;-75
2023/04/17 21:37:54;;;;;;;;;;;;;;;9.78;69.94;101357.23;215299;1258;61196;-75
2023/04/17 21:42:47;;;;;;;;;;;;;;;9.74;70.35;101353.80;214936;1260;61259;-76
2023/04/17 21:47:39;;;;;;;;;;;;;;;9.67;70.54;101351.19;215266;1262;61284;-75
2023/04/17 21:52:32;;;;;;;;;;;;;;;9.58;70.96;101346.77;214887;1258;61242;-75
2023/04/17 21:57:25;;;;;;;;;;;;;;;9.55;71.31;101346.48;214939;1258;62024;-75
2023/04/17 22:02:17;;;;;;;;;;;;;;;9.52;71.42;101347.63;214881;1260;61299;-75
2023/04/17 22:07:10;;;;;;;;;;;;;;;9.52;71.70;101348.84;214877;1260;61340;-75
2023/04/17 22:12:13;;;;;;;;;;;;;;;9.51;71.73;101346.38;214835;1259;61439;-75
2023/04/17 22:17:06;;;;;;;;;;;;;;;9.48;71.85;101347.48;214818;1260;61222;-75
2023/04/17 23:14:12;;;;;;;;;;;;;;;9.23;72.98;101351.71;215045;1262;61259;-74
2023/04/17 23:19:05;;;;;;;;;;;;;;;9.21;73.19;101350.44;215082;1260;65820;-75
2023/04/17 23:23:57;;;;;;;;;;;;;;;9.22;73.22;101344.73;215071;1259;61995;-75
2023/04/17 23:28:50;;;;;;;;;;;;;;;9.23;73.40;101351.89;215019;1262;61260;-75
2023/04/17 23:33:43;;;;;;;;;;;;;;;9.24;73.50;101347.39;214986;1260;61333;-75
2023/04/17 23:38:36;;;;;;;;;;;;;;;9.23;73.46;101344.08;214963;1260;61268;-75
2023/04/17 23:43:28;;;;;;;;;;;;;;;9.20;73.54;101344.17;215065;1260;61404;-75
2023/04/17 23:48:21;;;;;;;;;;;;;;;9.19;73.59;101339.28;215060;1259;61782;-75
2023/04/17 23:53:14;;;;;;;;;;;;;;;9.15;73.69;101335.36;215018;1260;61263;-75
2023/04/17 23:58:07;;;;;;;;;;;;;;;9.11;73.73;101335.77;215027;1259;61358;-74
